METAR de aeropuertos de Murcia y cercanos

 

LEMI - Murcia/Corvera
Actualización: 27/01/2021 17:00
Few Clouds
Few Clouds
 Viento del N
Viento: N 24 km/h
Temperatura: 22°C
Rocío: 11°C
Humedad: 50%
Barómetro: 1023 hPa
Nubosidad: Few Clouds
Visibilidad: 10 km
Cloud details: Few Clouds 1372 m
2021/01/27 16:00 LEMI 271600Z 35013KT 9999 FEW045 22/11 Q1023
LERI - Murcia/Alcantarilla
Actualización: 27/01/2021 17:00
Few Clouds
Few Clouds
 Viento del NNO
Viento: NNO 20 km/h
Temperatura: 23°C
Rocío: 11°C
Humedad: 47%
Barómetro: 1022 hPa
Nubosidad: Few Clouds
Visibilidad: 10 km
Cloud details: Few Clouds 1585 m
2021/01/27 16:00 LERI 271600Z 34011KT 300V020 9999 FEW052 23/11 Q1022 NOSIG
LELC - Murcia/San Javier
Actualización: 27/01/2021 17:00
Few Clouds
Few Clouds
 Viento del NO
Viento: NO 17 km/h
Temperatura: 24°C
Rocío: 11°C
Humedad: 44%
Barómetro: 1022 hPa
Nubosidad: Few Clouds
Visibilidad: 10 km
Cloud details: Few Clouds 1524 m
2021/01/27 16:00 LELC 271600Z 31009KT 280V340 9999 FEW050 24/11 Q1022 NOSIG
 
LEAL - Alicante
Actualización: 27/01/2021 17:00
Despejado
Despejado
 Viento del ONO
Viento: ONO 31 km/h
Temperatura: 24°C
Rocío: 11°C
Humedad: 44%
Barómetro: 1021 hPa
Resumen: Despejado
Visibilidad: greater than 10 km
2021/01/27 16:00 LEAL 271600Z 30017KT CAVOK 24/11 Q1021 NOSIG
LEAB - Albacete
Actualización: 27/01/2021 17:00
Partly Cloudy
Partly Cloudy
 Viento del ONO
Viento: ONO 28 km/h
Temperatura: 15°C
Rocío: 10°C
Humedad: 72%
Barómetro: 1025 hPa
Nubosidad: Partly Cloudy
Visibilidad: 10 km
Cloud details: Partly Cloudy 1067 m
2021/01/27 16:00 LEAB 271600Z 29015KT 9999 SCT035 15/10 Q1025 NOSIG
LEAM - Almería
Actualización: 27/01/2021 17:00
Despejado
Despejado
 Viento del SO
Viento: SO 7 km/h
Temperatura: 17°C
Rocío: 14°C
Humedad: 83%
Barómetro: 1023 hPa
Resumen: Despejado
Visibilidad: greater than 10 km
2021/01/27 16:00 LEAM 271600Z 23004KT CAVOK 17/14 Q1023

La estación de MeteoMurcia.com, publica sus datos en los siguientes proyectos:

Weather Underground PWS IMURCIAP2 Meteoclimatic www.awekas.at

W3Counter
Web Analytics